createdAt,value
2023-10-26T00:00:40.718Z,1.58
2023-10-26T00:03:07.510Z,2.03
2023-10-26T00:05:34.323Z,1.70
2023-10-26T00:08:01.024Z,1.98
2023-10-26T00:10:27.728Z,1.65
2023-10-26T00:12:54.427Z,1.33
2023-10-26T00:15:21.145Z,1.90
2023-10-26T00:17:47.914Z,2.13
2023-10-26T00:20:14.670Z,1.50
2023-10-26T00:22:41.329Z,1.73
2023-10-26T00:25:08.664Z,1.60
2023-10-26T00:27:41.636Z,1.70
2023-10-26T00:30:12.432Z,1.40
2023-10-26T00:32:40.792Z,1.27
2023-10-26T00:35:08.027Z,1.30
2023-10-26T00:37:35.270Z,1.55
2023-10-26T00:40:02.051Z,2.00
2023-10-26T00:42:28.794Z,2.08
2023-10-26T00:44:58.094Z,2.05
2023-10-26T00:47:27.098Z,1.52
2023-10-26T00:49:55.098Z,1.50
2023-10-26T00:52:24.200Z,1.65
2023-10-26T00:54:53.765Z,1.45
2023-10-26T00:57:24.089Z,1.98
2023-10-26T00:59:52.147Z,1.65
2023-10-26T01:02:20.165Z,1.85
2023-10-26T01:04:47.261Z,1.55
2023-10-26T01:07:16.652Z,1.42
2023-10-26T01:09:43.697Z,1.42
2023-10-26T01:12:11.090Z,1.20
2023-10-26T01:14:38.086Z,1.67
2023-10-26T01:17:04.905Z,1.85
2023-10-26T01:19:43.209Z,1.40
2023-10-26T01:22:10.940Z,1.52
2023-10-26T01:24:37.957Z,1.42
2023-10-26T01:27:05.756Z,1.60
2023-10-26T01:29:33.000Z,1.58
2023-10-26T01:32:00.280Z,1.73
2023-10-26T01:34:27.160Z,1.50
2023-10-26T01:36:53.942Z,1.55
2023-10-26T01:39:20.814Z,1.48
2023-10-26T01:41:48.273Z,1.85
2023-10-26T01:44:15.127Z,1.42
2023-10-26T01:46:41.822Z,1.50
2023-10-26T01:49:08.591Z,1.40
2023-10-26T01:51:36.008Z,1.40
2023-10-26T01:54:03.041Z,1.50
2023-10-26T01:56:31.016Z,1.58
2023-10-26T01:58:58.478Z,1.70
2023-10-26T02:01:25.653Z,1.25
2023-10-26T02:03:53.206Z,2.17
2023-10-26T02:06:20.065Z,1.63
2023-10-26T02:08:46.910Z,2.35
2023-10-26T02:11:14.044Z,1.90
2023-10-26T02:13:41.381Z,1.42
2023-10-26T02:16:08.488Z,2.03
2023-10-26T02:18:36.935Z,2.05
2023-10-26T02:21:03.992Z,1.70
2023-10-26T02:23:30.740Z,1.27
2023-10-26T02:25:57.670Z,1.75
2023-10-26T02:28:24.597Z,1.70
2023-10-26T02:30:51.328Z,1.60
2023-10-26T02:33:18.054Z,1.17
2023-10-26T02:35:44.866Z,1.90
2023-10-26T02:38:12.142Z,2.00
2023-10-26T02:40:39.455Z,1.45
2023-10-26T02:43:06.341Z,1.30
2023-10-26T02:45:33.149Z,1.40
2023-10-26T02:48:00.377Z,1.33
2023-10-26T02:50:28.628Z,1.30
2023-10-26T02:52:55.498Z,1.52
2023-10-26T02:55:22.398Z,1.58
2023-10-26T02:57:49.469Z,1.23
2023-10-26T03:00:17.630Z,1.17
2023-10-26T03:02:44.816Z,1.55
2023-10-26T03:05:11.674Z,1.50
2023-10-26T03:07:38.305Z,1.52
2023-10-26T03:10:06.571Z,1.20
2023-10-26T03:12:33.413Z,1.00
2023-10-26T03:15:01.287Z,1.30
2023-10-26T03:17:28.234Z,1.42
2023-10-26T03:19:55.043Z,1.40
2023-10-26T03:22:21.956Z,1.50
2023-10-26T03:24:50.780Z,1.20
2023-10-26T03:27:17.787Z,1.30
2023-10-26T03:29:45.688Z,1.38
2023-10-26T03:32:12.501Z,1.52
2023-10-26T03:34:39.831Z,1.52
2023-10-26T03:37:06.615Z,1.42
2023-10-26T03:39:34.706Z,1.45
2023-10-26T03:42:01.688Z,1.50
2023-10-26T03:44:29.470Z,1.60
2023-10-26T03:46:56.349Z,1.55
2023-10-26T03:49:23.145Z,2.13
2023-10-26T03:51:50.141Z,1.80
2023-10-26T03:54:16.974Z,2.03
2023-10-26T03:56:43.826Z,1.98
2023-10-26T03:59:10.566Z,2.00
2023-10-26T04:01:37.316Z,1.90
2023-10-26T04:04:04.929Z,1.75
2023-10-26T04:06:31.625Z,1.75
2023-10-26T04:08:58.555Z,1.30
2023-10-26T04:11:25.787Z,2.00
2023-10-26T04:13:55.116Z,1.90
2023-10-26T04:16:22.515Z,1.75
2023-10-26T04:18:49.291Z,1.50
2023-10-26T04:21:16.058Z,1.70
2023-10-26T04:23:42.773Z,1.83
2023-10-26T04:26:14.530Z,1.67
2023-10-26T04:28:51.393Z,1.83
2023-10-26T04:31:19.181Z,1.77
2023-10-26T04:33:46.126Z,1.63
2023-10-26T04:36:13.087Z,1.80
2023-10-26T04:38:40.300Z,1.73
2023-10-26T04:41:07.065Z,1.75
2023-10-26T04:43:33.862Z,1.48
2023-10-26T04:46:00.739Z,2.00
2023-10-26T04:48:27.477Z,1.65
2023-10-26T04:50:54.196Z,2.05
2023-10-26T04:53:20.892Z,2.28
2023-10-26T04:55:47.554Z,2.25
2023-10-26T04:58:15.832Z,2.50
2023-10-26T05:00:42.660Z,2.92
2023-10-26T05:03:09.392Z,2.28
2023-10-26T05:05:36.314Z,3.40
2023-10-26T05:08:05.126Z,2.72
2023-10-26T05:10:31.957Z,2.97
2023-10-26T05:12:58.711Z,2.63
2023-10-26T05:15:25.573Z,2.95
2023-10-26T05:17:52.378Z,2.70
2023-10-26T05:20:19.317Z,3.30
2023-10-26T05:22:46.039Z,2.83
2023-10-26T05:25:14.926Z,3.03
2023-10-26T05:27:42.003Z,2.60
2023-10-26T05:30:09.184Z,3.60
2023-10-26T05:32:36.001Z,2.55
2023-10-26T05:35:02.794Z,2.13
2023-10-26T05:37:29.486Z,2.45
2023-10-26T05:39:56.200Z,2.20
2023-10-26T05:42:23.008Z,2.63
2023-10-26T05:44:49.805Z,2.67
2023-10-26T05:47:21.776Z,2.20
2023-10-26T05:49:48.925Z,2.88
2023-10-26T05:52:16.009Z,2.90
2023-10-26T05:54:43.355Z,2.38
2023-10-26T05:57:10.417Z,1.98
2023-10-26T05:59:37.141Z,2.67
2023-10-26T06:02:03.941Z,2.50
2023-10-26T06:04:30.776Z,2.10
2023-10-26T06:06:57.425Z,2.35
2023-10-26T06:09:25.455Z,2.00
2023-10-26T06:11:53.217Z,2.63
2023-10-26T06:14:21.557Z,3.33
2023-10-26T06:16:49.010Z,2.70
2023-10-26T06:19:15.708Z,3.03
2023-10-26T06:21:42.558Z,3.28
2023-10-26T06:24:09.479Z,3.03
2023-10-26T06:26:36.267Z,2.40
2023-10-26T06:29:03.295Z,2.47
2023-10-26T06:31:30.063Z,2.47
2023-10-26T06:33:56.769Z,3.15
2023-10-26T06:36:23.491Z,3.00
2023-10-26T06:38:55.555Z,2.92
2023-10-26T06:41:22.407Z,3.08
2023-10-26T06:43:49.069Z,3.15
2023-10-26T06:46:16.014Z,3.15
2023-10-26T06:48:42.727Z,2.80
2023-10-26T06:51:09.534Z,3.13
2023-10-26T06:53:36.412Z,2.35
2023-10-26T06:56:03.422Z,3.15
2023-10-26T06:58:30.144Z,3.70
2023-10-26T07:00:56.870Z,3.67
2023-10-26T07:03:42.820Z,2.50
2023-10-26T07:06:13.724Z,3.10
2023-10-26T07:08:40.482Z,2.80
2023-10-26T07:11:08.852Z,3.05
2023-10-26T07:13:35.547Z,3.25
2023-10-26T07:16:03.296Z,2.30
2023-10-26T07:18:30.900Z,2.65
2023-10-26T07:20:58.712Z,2.83
2023-10-26T07:23:25.448Z,2.45
2023-10-26T07:25:52.108Z,2.42
2023-10-26T07:28:18.854Z,2.38
2023-10-26T07:30:45.962Z,2.25
2023-10-26T07:33:12.714Z,2.05
2023-10-26T07:35:42.249Z,3.10
2023-10-26T07:38:35.620Z,2.05
2023-10-26T07:40:58.322Z,2.67
2023-10-26T07:43:25.007Z,1.90
2023-10-26T07:45:52.544Z,1.73
2023-10-26T07:48:19.707Z,1.20
2023-10-26T07:50:46.589Z,1.60
2023-10-26T07:53:15.297Z,1.33
2023-10-26T07:55:42.232Z,1.10
2023-10-26T07:58:08.936Z,1.65
2023-10-26T08:00:39.385Z,1.40
2023-10-26T08:03:06.463Z,1.70
2023-10-26T08:05:33.240Z,1.15
2023-10-26T08:08:00.070Z,1.25
2023-10-26T08:10:27.338Z,1.50
2023-10-26T08:12:54.533Z,1.00
2023-10-26T08:16:31.965Z,1.42
2023-10-26T08:18:08.712Z,1.50
2023-10-26T08:20:35.684Z,1.40
2023-10-26T08:23:05.711Z,1.35
2023-10-26T08:25:38.753Z,1.60
2023-10-26T08:28:05.522Z,1.83
2023-10-26T08:30:32.297Z,1.63
2023-10-26T08:33:01.201Z,1.67
2023-10-26T08:35:28.059Z,1.70
2023-10-26T08:37:54.834Z,1.45
2023-10-26T08:40:22.017Z,1.52
2023-10-26T08:42:49.024Z,0.93
2023-10-26T08:45:27.675Z,1.60
2023-10-26T08:47:57.864Z,1.55
2023-10-26T08:50:25.663Z,1.60
2023-10-26T08:52:55.275Z,1.60
2023-10-26T08:55:22.106Z,2.30
2023-10-26T08:57:51.891Z,1.52
2023-10-26T09:00:19.580Z,2.47
2023-10-26T09:02:49.185Z,1.70
2023-10-26T09:05:16.454Z,1.67
2023-10-26T09:07:43.414Z,1.70
2023-10-26T09:10:11.191Z,1.63
2023-10-26T09:12:38.257Z,2.33
2023-10-26T09:15:09.848Z,1.73
2023-10-26T09:17:37.199Z,1.88
2023-10-26T09:20:18.706Z,1.40
2023-10-26T09:22:45.423Z,1.50
2023-10-26T09:25:14.140Z,1.67
2023-10-26T09:27:41.887Z,2.10
2023-10-26T09:30:29.736Z,1.40
2023-10-26T09:33:00.322Z,1.17
2023-10-26T09:35:28.007Z,1.60
2023-10-26T09:37:54.986Z,2.40
2023-10-26T09:40:25.678Z,2.55
2023-10-26T09:42:52.979Z,2.00
2023-10-26T09:45:21.191Z,2.00
2023-10-26T09:47:48.225Z,1.83
2023-10-26T09:50:15.652Z,1.33
2023-10-26T09:52:43.726Z,1.40
2023-10-26T09:55:12.524Z,2.00
2023-10-26T09:57:52.364Z,2.20
2023-10-26T10:00:19.272Z,2.92
2023-10-26T10:03:06.413Z,2.35
2023-10-26T10:05:38.529Z,3.22
2023-10-26T10:08:06.039Z,2.78
2023-10-26T10:10:34.121Z,2.33
2023-10-26T10:13:01.479Z,2.83
2023-10-26T10:15:44.380Z,2.58
2023-10-26T10:18:11.526Z,2.08
2023-10-26T10:20:41.705Z,1.40
2023-10-26T10:23:09.419Z,1.50
2023-10-26T10:25:51.396Z,1.17
2023-10-26T10:28:19.533Z,1.60
2023-10-26T10:31:00.406Z,1.67
2023-10-26T10:33:29.010Z,1.15
2023-10-26T10:36:05.798Z,1.00
2023-10-26T10:38:33.648Z,0.95
2023-10-26T10:41:00.385Z,0.90
2023-10-26T10:43:46.603Z,0.60
2023-10-26T10:46:23.146Z,1.10
2023-10-26T10:48:57.857Z,0.80
2023-10-26T10:51:30.910Z,0.80
2023-10-26T10:54:01.050Z,0.90
2023-10-26T10:56:39.846Z,1.10
2023-10-26T10:59:42.130Z,0.82
2023-10-26T11:02:14.025Z,1.02
2023-10-26T11:05:09.223Z,1.10
2023-10-26T11:07:39.975Z,1.23
2023-10-26T11:10:07.372Z,1.33
2023-10-26T11:12:34.317Z,1.40
2023-10-26T11:15:01.508Z,1.35
2023-10-26T11:17:30.553Z,1.02
2023-10-26T11:19:57.364Z,1.02
2023-10-26T11:22:24.443Z,1.10
2023-10-26T11:24:51.547Z,0.80
2023-10-26T11:27:20.302Z,0.90
2023-10-26T11:30:01.211Z,1.75
2023-10-26T11:32:30.442Z,10.02
2023-10-26T11:35:10.000Z,1.00
2023-10-26T11:37:42.904Z,0.90
2023-10-26T11:40:11.483Z,1.00
2023-10-26T11:42:53.325Z,1.40
2023-10-26T11:45:22.434Z,0.73
2023-10-26T11:47:53.598Z,1.30
2023-10-26T11:50:22.276Z,1.60
2023-10-26T11:52:49.592Z,2.05
2023-10-26T11:55:16.953Z,2.22
2023-10-26T11:57:43.721Z,1.85
2023-10-26T12:00:11.188Z,1.00
2023-10-26T12:02:37.906Z,1.67
2023-10-26T12:05:05.020Z,1.40
2023-10-26T12:07:32.562Z,2.33
2023-10-26T12:09:59.238Z,1.42
2023-10-26T12:12:26.752Z,4.15
2023-10-26T12:14:53.504Z,4.13
2023-10-26T12:17:20.160Z,2.00
2023-10-26T12:19:46.804Z,1.20
2023-10-26T12:22:13.551Z,1.17
2023-10-26T12:24:40.416Z,1.40
2023-10-26T12:27:07.038Z,1.05
2023-10-26T12:29:33.703Z,1.38
2023-10-26T12:32:00.446Z,1.13
2023-10-26T12:34:27.097Z,1.00
2023-10-26T12:36:53.737Z,0.80
2023-10-26T12:39:20.376Z,0.80
2023-10-26T12:41:47.004Z,0.70
2023-10-26T12:44:13.787Z,0.80
2023-10-26T12:46:40.543Z,0.70
2023-10-26T12:49:07.149Z,0.70
2023-10-26T12:51:34.567Z,0.50
2023-10-26T12:54:09.111Z,0.65
2023-10-26T12:56:37.967Z,0.98
2023-10-26T12:59:04.753Z,0.52
2023-10-26T13:01:31.564Z,0.93
2023-10-26T13:03:59.474Z,0.95
2023-10-26T13:06:26.383Z,1.10
2023-10-26T13:08:53.056Z,0.80
2023-10-26T13:11:19.824Z,0.90
2023-10-26T13:13:46.598Z,0.70
2023-10-26T13:16:13.327Z,1.10
2023-10-26T13:18:41.410Z,1.00
2023-10-26T13:21:10.239Z,0.90
2023-10-26T13:23:36.998Z,0.90
2023-10-26T13:26:03.663Z,1.15
2023-10-26T13:28:30.966Z,1.27
2023-10-26T13:30:57.706Z,1.10
2023-10-26T13:33:24.438Z,0.95
2023-10-26T13:35:51.113Z,0.75
2023-10-26T13:38:17.778Z,0.70
2023-10-26T13:40:45.177Z,0.80
2023-10-26T13:43:12.557Z,0.98
2023-10-26T13:45:39.555Z,0.60
2023-10-26T13:48:09.650Z,0.75
2023-10-26T13:50:39.176Z,1.10
2023-10-26T13:53:05.860Z,0.80
2023-10-26T13:55:39.525Z,0.77
2023-10-26T13:58:09.377Z,0.80
2023-10-26T14:00:36.571Z,0.88
2023-10-26T14:03:04.787Z,0.90
2023-10-26T14:05:32.290Z,0.63
2023-10-26T14:07:59.653Z,0.82
2023-10-26T14:10:26.651Z,0.68
2023-10-26T14:12:53.709Z,0.80
2023-10-26T14:15:20.522Z,0.70
2023-10-26T14:17:47.529Z,0.77
2023-10-26T14:20:14.365Z,0.80
2023-10-26T14:22:41.803Z,1.17
2023-10-26T14:25:08.972Z,0.80
2023-10-26T14:27:35.882Z,0.70
2023-10-26T14:30:02.687Z,0.80
2023-10-26T14:32:29.594Z,0.60
2023-10-26T14:34:56.282Z,0.60
2023-10-26T14:37:23.104Z,1.00
2023-10-26T14:39:49.841Z,0.65
2023-10-26T14:42:16.745Z,0.60
2023-10-26T14:44:43.706Z,0.80
2023-10-26T14:47:10.719Z,0.70
2023-10-26T14:49:37.691Z,0.75
2023-10-26T14:52:05.186Z,1.10
2023-10-26T14:54:33.144Z,0.85
2023-10-26T14:56:59.795Z,0.93
2023-10-26T14:59:28.636Z,0.90
2023-10-26T15:01:58.553Z,0.75
2023-10-26T15:04:25.410Z,0.70
2023-10-26T15:06:53.316Z,0.93
2023-10-26T15:09:28.977Z,0.70
2023-10-26T15:12:07.208Z,0.80
2023-10-26T15:14:34.168Z,1.10
2023-10-26T15:17:01.248Z,1.58
2023-10-26T15:19:27.962Z,0.93
2023-10-26T15:21:56.087Z,0.70
2023-10-26T15:24:23.756Z,0.60
2023-10-26T15:26:50.827Z,0.70
2023-10-26T15:29:17.649Z,0.70
2023-10-26T15:31:48.553Z,1.10
2023-10-26T15:34:16.659Z,1.02
2023-10-26T15:36:44.093Z,0.80
2023-10-26T15:39:11.333Z,0.80
2023-10-26T15:41:43.902Z,0.80
2023-10-26T15:44:10.854Z,1.13
2023-10-26T15:46:38.133Z,0.95
2023-10-26T15:49:33.825Z,1.10
2023-10-26T15:51:54.518Z,1.02
2023-10-26T15:54:21.789Z,1.10
2023-10-26T15:56:48.587Z,1.30
2023-10-26T15:59:16.704Z,1.17
2023-10-26T16:01:44.063Z,1.20
2023-10-26T16:04:11.361Z,1.35
2023-10-26T16:06:38.194Z,1.23
2023-10-26T16:09:05.268Z,1.60
2023-10-26T16:11:31.971Z,1.40
2023-10-26T16:13:58.623Z,1.58
2023-10-26T16:16:25.448Z,1.60
2023-10-26T16:18:52.262Z,1.45
2023-10-26T16:21:18.959Z,1.25
2023-10-26T16:23:45.686Z,1.30
2023-10-26T16:26:12.674Z,1.38
2023-10-26T16:28:39.497Z,1.80
2023-10-26T16:31:06.306Z,2.10
2023-10-26T16:33:33.023Z,1.40
2023-10-26T16:36:00.741Z,1.90
2023-10-26T16:38:27.544Z,1.65
2023-10-26T16:40:54.785Z,1.85
2023-10-26T16:43:22.410Z,1.75
2023-10-26T16:45:49.231Z,2.17
2023-10-26T16:48:17.324Z,1.50
2023-10-26T16:50:45.115Z,1.75
2023-10-26T16:53:27.267Z,1.63
2023-10-26T16:55:59.172Z,1.83
2023-10-26T16:58:25.926Z,1.85
2023-10-26T17:00:52.676Z,1.73
2023-10-26T17:03:19.532Z,2.28
2023-10-26T17:05:46.217Z,1.73
2023-10-26T17:08:13.201Z,1.50
2023-10-26T17:10:41.623Z,1.67
2023-10-26T17:13:10.432Z,1.60
2023-10-26T17:15:37.194Z,1.55
2023-10-26T17:18:04.102Z,1.23
2023-10-26T17:20:30.811Z,1.33
2023-10-26T17:22:57.492Z,1.30
2023-10-26T17:25:24.109Z,0.90
2023-10-26T17:27:51.996Z,0.90
2023-10-26T17:30:20.118Z,1.00
2023-10-26T17:32:48.244Z,0.50
2023-10-26T17:35:14.991Z,1.10
2023-10-26T17:37:41.590Z,0.95
2023-10-26T17:40:08.651Z,0.90
2023-10-26T17:42:36.174Z,0.90
2023-10-26T17:45:03.045Z,1.00
2023-10-26T17:47:29.881Z,0.82
2023-10-26T17:49:57.273Z,1.00
2023-10-26T17:52:24.268Z,1.40
2023-10-26T17:54:50.995Z,1.20
2023-10-26T17:57:17.813Z,0.73
2023-10-26T17:59:44.755Z,0.80
2023-10-26T18:02:11.689Z,1.10
2023-10-26T18:04:38.455Z,1.20
2023-10-26T18:07:05.168Z,1.30
2023-10-26T18:09:31.951Z,0.98
2023-10-26T18:11:58.630Z,1.23
2023-10-26T18:14:26.459Z,1.20
2023-10-26T18:16:55.878Z,1.30
2023-10-26T18:19:22.829Z,1.23
2023-10-26T18:21:49.582Z,1.17
2023-10-26T18:24:16.612Z,0.73
2023-10-26T18:26:43.621Z,1.00
2023-10-26T18:29:10.255Z,0.93
2023-10-26T18:31:36.985Z,0.98
2023-10-26T18:34:04.613Z,1.00
2023-10-26T18:36:33.106Z,1.00
2023-10-26T18:38:59.959Z,0.90
2023-10-26T18:41:26.960Z,0.90
2023-10-26T18:43:54.479Z,0.73
2023-10-26T18:46:21.333Z,1.33
2023-10-26T18:48:48.278Z,1.50
2023-10-26T18:51:15.027Z,1.75
2023-10-26T18:53:42.713Z,1.42
2023-10-26T18:56:16.655Z,1.60
2023-10-26T18:58:43.671Z,1.58
2023-10-26T19:01:10.511Z,2.22
2023-10-26T19:03:46.093Z,1.70
2023-10-26T19:06:23.963Z,1.20
2023-10-26T19:08:50.672Z,1.50
2023-10-26T19:11:17.718Z,1.30
2023-10-26T19:13:44.790Z,1.48
2023-10-26T19:16:11.861Z,1.10
2023-10-26T19:18:38.822Z,1.02
2023-10-26T19:21:06.285Z,1.30
2023-10-26T19:23:33.157Z,1.02
2023-10-26T19:25:59.861Z,1.20
2023-10-26T19:28:26.653Z,1.02
2023-10-26T19:30:56.368Z,1.25
2023-10-26T19:33:24.280Z,1.20
2023-10-26T19:35:51.195Z,1.20
2023-10-26T19:38:18.301Z,1.35
2023-10-26T19:40:45.295Z,1.30
2023-10-26T19:43:12.208Z,1.10
2023-10-26T19:45:41.459Z,1.10
2023-10-26T19:48:09.156Z,1.10
2023-10-26T19:50:35.936Z,1.00
2023-10-26T19:53:02.641Z,1.00
2023-10-26T19:55:29.389Z,1.08
2023-10-26T19:57:58.562Z,1.02
2023-10-26T20:00:27.319Z,1.00
2023-10-26T20:02:54.175Z,1.00
2023-10-26T20:05:21.168Z,0.90
2023-10-26T20:07:48.077Z,1.23
2023-10-26T20:10:14.927Z,1.08
2023-10-26T20:12:41.718Z,1.10
2023-10-26T20:15:10.404Z,0.93
2023-10-26T20:17:37.173Z,1.08
2023-10-26T20:20:07.898Z,1.38
2023-10-26T20:22:35.192Z,1.52
2023-10-26T20:25:02.295Z,1.20
2023-10-26T20:27:29.108Z,1.00
2023-10-26T20:29:56.044Z,1.10
2023-10-26T20:32:22.733Z,2.42
2023-10-26T20:34:49.542Z,2.50
2023-10-26T20:37:16.542Z,1.60
2023-10-26T20:39:44.853Z,1.48
2023-10-26T20:42:11.927Z,1.02
2023-10-26T20:44:38.639Z,0.90
2023-10-26T20:47:06.560Z,0.65
2023-10-26T20:49:33.371Z,0.60
2023-10-26T20:52:00.043Z,0.60
2023-10-26T20:54:26.685Z,0.63
2023-10-26T20:56:53.416Z,0.90
2023-10-26T20:59:20.131Z,0.50
2023-10-26T21:01:46.855Z,0.60
2023-10-26T21:04:13.777Z,0.50
2023-10-26T21:06:40.589Z,1.40
2023-10-26T21:09:07.388Z,0.30
2023-10-26T21:11:34.070Z,0.30
2023-10-26T21:14:00.812Z,0.50
2023-10-26T21:16:27.911Z,0.40
2023-10-26T21:18:54.765Z,0.50
2023-10-26T21:21:21.417Z,0.38
2023-10-26T21:23:48.133Z,0.65
2023-10-26T21:26:14.925Z,0.32
2023-10-26T21:28:42.930Z,1.00
2023-10-26T21:31:10.237Z,0.45
2023-10-26T21:33:37.198Z,0.45
2023-10-26T21:36:10.104Z,0.40
2023-10-26T21:38:36.819Z,0.30
2023-10-26T21:41:05.845Z,0.25
2023-10-26T21:43:33.762Z,0.47
2023-10-26T21:46:07.860Z,0.43
2023-10-26T21:48:37.832Z,0.40
2023-10-26T21:51:08.458Z,0.40
2023-10-26T21:53:35.325Z,0.47
2023-10-26T21:56:02.221Z,0.50
2023-10-26T21:58:29.103Z,0.68
2023-10-26T22:00:55.979Z,0.50
2023-10-26T22:03:22.978Z,0.50
2023-10-26T22:05:49.864Z,0.50
2023-10-26T22:08:17.063Z,0.80
2023-10-26T22:10:43.789Z,0.60
2023-10-26T22:13:10.603Z,0.40
2023-10-26T22:15:37.485Z,0.60
2023-10-26T22:18:04.371Z,0.60
2023-10-26T22:20:31.408Z,0.77
2023-10-26T22:22:58.049Z,0.50
2023-10-26T22:25:25.042Z,0.70
2023-10-26T22:27:51.759Z,0.43
2023-10-26T22:30:18.760Z,0.70
2023-10-26T22:32:45.544Z,1.00
2023-10-26T22:35:12.592Z,0.80
2023-10-26T22:37:39.412Z,0.60
2023-10-26T22:40:08.049Z,0.60
2023-10-26T22:42:35.066Z,0.50
2023-10-26T22:45:01.739Z,0.40
2023-10-26T22:47:28.555Z,1.02
2023-10-26T22:49:56.026Z,0.70
2023-10-26T22:52:22.815Z,0.60
2023-10-26T22:54:49.507Z,0.90
2023-10-26T22:57:16.181Z,0.65
2023-10-26T22:59:46.469Z,1.20
2023-10-26T23:02:13.365Z,0.93
2023-10-26T23:04:40.053Z,0.77
2023-10-26T23:07:06.889Z,0.82
2023-10-26T23:09:33.615Z,0.80
2023-10-26T23:12:00.500Z,0.85
2023-10-26T23:14:27.972Z,0.80
2023-10-26T23:16:54.748Z,0.90
2023-10-26T23:19:21.468Z,1.20
2023-10-26T23:21:48.746Z,1.10
2023-10-26T23:24:15.517Z,1.30
2023-10-26T23:26:42.204Z,1.23
2023-10-26T23:29:08.864Z,0.93
2023-10-26T23:31:35.814Z,1.10
2023-10-26T23:34:02.537Z,0.82
2023-10-26T23:36:29.289Z,0.80
2023-10-26T23:38:56.266Z,0.98
2023-10-26T23:41:22.847Z,0.90
2023-10-26T23:43:49.529Z,0.93
2023-10-26T23:46:16.180Z,1.23
2023-10-26T23:48:42.900Z,1.05
2023-10-26T23:51:09.607Z,0.63
2023-10-26T23:53:36.238Z,1.00
2023-10-26T23:56:03.418Z,0.90
2023-10-26T23:58:30.136Z,1.15
